sensor_id;sensor_type;location;lat;lon;timestamp;P1;durP1;ratioP1;P2;durP2;ratioP2
13985;SDS011;7067;51.832;8.296;2023-06-14T00:02:13;3.17;;;2.35;;
13985;SDS011;7067;51.832;8.296;2023-06-14T00:04:39;2.40;;;1.70;;
13985;SDS011;7067;51.832;8.296;2023-06-14T00:07:06;5.65;;;2.10;;
13985;SDS011;7067;51.832;8.296;2023-06-14T00:09:34;2.55;;;2.10;;
13985;SDS011;7067;51.832;8.296;2023-06-14T00:12:00;3.63;;;1.85;;
13985;SDS011;7067;51.832;8.296;2023-06-14T00:14:26;6.63;;;2.38;;
13985;SDS011;7067;51.832;8.296;2023-06-14T00:16:51;3.55;;;1.80;;
13985;SDS011;7067;51.832;8.296;2023-06-14T00:19:18;6.97;;;1.95;;
13985;SDS011;7067;51.832;8.296;2023-06-14T00:21:44;2.25;;;1.70;;
13985;SDS011;7067;51.832;8.296;2023-06-14T00:24:10;7.00;;;2.05;;
13985;SDS011;7067;51.832;8.296;2023-06-14T00:26:35;5.15;;;3.05;;
13985;SDS011;7067;51.832;8.296;2023-06-14T00:29:01;2.88;;;2.10;;
13985;SDS011;7067;51.832;8.296;2023-06-14T00:31:26;3.35;;;1.70;;
13985;SDS011;7067;51.832;8.296;2023-06-14T00:33:51;7.68;;;1.70;;
13985;SDS011;7067;51.832;8.296;2023-06-14T00:36:17;4.22;;;1.80;;
13985;SDS011;7067;51.832;8.296;2023-06-14T00:38:42;3.08;;;2.35;;
13985;SDS011;7067;51.832;8.296;2023-06-14T00:41:07;2.13;;;1.77;;
13985;SDS011;7067;51.832;8.296;2023-06-14T00:43:33;1.80;;;1.70;;
13985;SDS011;7067;51.832;8.296;2023-06-14T00:45:59;2.97;;;1.73;;
13985;SDS011;7067;51.832;8.296;2023-06-14T00:48:25;2.00;;;1.90;;
13985;SDS011;7067;51.832;8.296;2023-06-14T00:50:50;2.20;;;2.00;;
13985;SDS011;7067;51.832;8.296;2023-06-14T00:53:17;2.05;;;1.83;;
13985;SDS011;7067;51.832;8.296;2023-06-14T00:55:43;2.65;;;1.98;;
13985;SDS011;7067;51.832;8.296;2023-06-14T00:58:09;2.45;;;2.25;;
13985;SDS011;7067;51.832;8.296;2023-06-14T01:00:35;2.95;;;1.88;;
13985;SDS011;7067;51.832;8.296;2023-06-14T01:03:00;4.53;;;2.28;;
13985;SDS011;7067;51.832;8.296;2023-06-14T01:05:26;1.83;;;1.73;;
13985;SDS011;7067;51.832;8.296;2023-06-14T01:13:51;12.18;;;2.50;;
13985;SDS011;7067;51.832;8.296;2023-06-14T01:16:17;3.30;;;1.95;;
13985;SDS011;7067;51.832;8.296;2023-06-14T01:18:43;3.60;;;2.00;;
13985;SDS011;7067;51.832;8.296;2023-06-14T01:21:25;4.22;;;2.10;;
13985;SDS011;7067;51.832;8.296;2023-06-14T01:23:51;2.03;;;1.88;;
13985;SDS011;7067;51.832;8.296;2023-06-14T01:26:26;4.57;;;2.00;;
13985;SDS011;7067;51.832;8.296;2023-06-14T01:28:54;2.17;;;1.98;;
13985;SDS011;7067;51.832;8.296;2023-06-14T01:31:23;3.95;;;2.20;;
13985;SDS011;7067;51.832;8.296;2023-06-14T01:33:49;3.67;;;2.00;;
13985;SDS011;7067;51.832;8.296;2023-06-14T01:36:16;2.83;;;1.90;;
13985;SDS011;7067;51.832;8.296;2023-06-14T01:38:42;2.78;;;2.30;;
13985;SDS011;7067;51.832;8.296;2023-06-14T01:41:08;3.15;;;1.80;;
13985;SDS011;7067;51.832;8.296;2023-06-14T01:43:34;2.35;;;1.80;;
13985;SDS011;7067;51.832;8.296;2023-06-14T01:46:00;3.13;;;1.98;;
13985;SDS011;7067;51.832;8.296;2023-06-14T01:48:26;4.50;;;2.15;;
13985;SDS011;7067;51.832;8.296;2023-06-14T01:50:52;4.85;;;2.10;;
13985;SDS011;7067;51.832;8.296;2023-06-14T01:53:17;2.88;;;2.40;;
13985;SDS011;7067;51.832;8.296;2023-06-14T01:55:42;4.25;;;1.85;;
13985;SDS011;7067;51.832;8.296;2023-06-14T01:58:09;2.83;;;2.10;;
13985;SDS011;7067;51.832;8.296;2023-06-14T02:00:35;2.05;;;1.83;;
13985;SDS011;7067;51.832;8.296;2023-06-14T02:03:01;5.22;;;2.38;;
13985;SDS011;7067;51.832;8.296;2023-06-14T02:05:27;3.30;;;2.00;;
13985;SDS011;7067;51.832;8.296;2023-06-14T02:07:52;3.42;;;1.98;;
13985;SDS011;7067;51.832;8.296;2023-06-14T02:10:18;3.25;;;2.17;;
13985;SDS011;7067;51.832;8.296;2023-06-14T02:12:43;1.98;;;1.55;;
13985;SDS011;7067;51.832;8.296;2023-06-14T02:15:09;2.53;;;1.92;;
13985;SDS011;7067;51.832;8.296;2023-06-14T02:17:42;2.45;;;2.17;;
13985;SDS011;7067;51.832;8.296;2023-06-14T02:20:08;6.68;;;2.60;;
13985;SDS011;7067;51.832;8.296;2023-06-14T02:22:34;2.13;;;1.85;;
13985;SDS011;7067;51.832;8.296;2023-06-14T02:24:59;2.83;;;2.00;;
13985;SDS011;7067;51.832;8.296;2023-06-14T02:27:25;2.22;;;1.98;;
13985;SDS011;7067;51.832;8.296;2023-06-14T02:29:50;2.33;;;2.13;;
13985;SDS011;7067;51.832;8.296;2023-06-14T02:32:15;2.90;;;1.58;;
13985;SDS011;7067;51.832;8.296;2023-06-14T02:34:41;3.83;;;2.60;;
13985;SDS011;7067;51.832;8.296;2023-06-14T02:37:06;3.85;;;1.88;;
13985;SDS011;7067;51.832;8.296;2023-06-14T02:39:31;4.40;;;2.25;;
13985;SDS011;7067;51.832;8.296;2023-06-14T02:41:57;7.32;;;2.45;;
13985;SDS011;7067;51.832;8.296;2023-06-14T02:44:25;2.50;;;1.83;;
13985;SDS011;7067;51.832;8.296;2023-06-14T02:46:54;2.22;;;2.03;;
13985;SDS011;7067;51.832;8.296;2023-06-14T02:49:21;6.18;;;2.75;;
13985;SDS011;7067;51.832;8.296;2023-06-14T02:51:46;5.72;;;2.13;;
13985;SDS011;7067;51.832;8.296;2023-06-14T02:54:11;3.97;;;2.30;;
13985;SDS011;7067;51.832;8.296;2023-06-14T02:56:37;2.83;;;2.15;;
13985;SDS011;7067;51.832;8.296;2023-06-14T02:59:02;6.05;;;2.53;;
13985;SDS011;7067;51.832;8.296;2023-06-14T03:01:27;2.55;;;2.35;;
13985;SDS011;7067;51.832;8.296;2023-06-14T03:03:59;3.90;;;2.15;;
13985;SDS011;7067;51.832;8.296;2023-06-14T03:06:26;4.15;;;2.42;;
13985;SDS011;7067;51.832;8.296;2023-06-14T03:08:54;2.70;;;2.20;;
13985;SDS011;7067;51.832;8.296;2023-06-14T03:11:20;3.20;;;2.45;;
13985;SDS011;7067;51.832;8.296;2023-06-14T03:13:45;3.83;;;2.28;;
13985;SDS011;7067;51.832;8.296;2023-06-14T03:16:11;3.47;;;2.33;;
13985;SDS011;7067;51.832;8.296;2023-06-14T03:18:37;4.15;;;2.38;;
13985;SDS011;7067;51.832;8.296;2023-06-14T03:21:02;5.53;;;2.17;;
13985;SDS011;7067;51.832;8.296;2023-06-14T03:23:28;2.92;;;2.25;;
13985;SDS011;7067;51.832;8.296;2023-06-14T03:25:53;2.28;;;2.08;;
13985;SDS011;7067;51.832;8.296;2023-06-14T03:28:19;2.88;;;1.83;;
13985;SDS011;7067;51.832;8.296;2023-06-14T03:30:44;2.20;;;2.00;;
13985;SDS011;7067;51.832;8.296;2023-06-14T03:33:10;2.33;;;2.13;;
13985;SDS011;7067;51.832;8.296;2023-06-14T03:35:35;2.45;;;1.95;;
13985;SDS011;7067;51.832;8.296;2023-06-14T03:38:01;3.42;;;2.50;;
13985;SDS011;7067;51.832;8.296;2023-06-14T03:40:27;5.13;;;2.42;;
13985;SDS011;7067;51.832;8.296;2023-06-14T03:42:55;2.45;;;2.25;;
13985;SDS011;7067;51.832;8.296;2023-06-14T03:45:21;3.22;;;2.40;;
13985;SDS011;7067;51.832;8.296;2023-06-14T03:47:46;7.10;;;2.25;;
13985;SDS011;7067;51.832;8.296;2023-06-14T03:50:12;2.05;;;1.80;;
13985;SDS011;7067;51.832;8.296;2023-06-14T03:52:38;4.28;;;1.67;;
13985;SDS011;7067;51.832;8.296;2023-06-14T03:55:03;4.22;;;1.90;;
13985;SDS011;7067;51.832;8.296;2023-06-14T03:57:29;3.25;;;1.90;;
13985;SDS011;7067;51.832;8.296;2023-06-14T03:59:54;1.70;;;1.60;;
13985;SDS011;7067;51.832;8.296;2023-06-14T04:02:20;5.00;;;1.80;;
13985;SDS011;7067;51.832;8.296;2023-06-14T04:04:45;2.72;;;2.17;;
13985;SDS011;7067;51.832;8.296;2023-06-14T04:07:11;6.90;;;2.00;;
13985;SDS011;7067;51.832;8.296;2023-06-14T04:09:37;4.55;;;2.28;;
13985;SDS011;7067;51.832;8.296;2023-06-14T04:12:04;6.07;;;2.08;;
13985;SDS011;7067;51.832;8.296;2023-06-14T04:14:30;2.33;;;1.90;;
13985;SDS011;7067;51.832;8.296;2023-06-14T04:16:57;4.60;;;2.15;;
13985;SDS011;7067;51.832;8.296;2023-06-14T04:19:23;5.57;;;2.03;;
13985;SDS011;7067;51.832;8.296;2023-06-14T04:21:48;2.90;;;2.30;;
13985;SDS011;7067;51.832;8.296;2023-06-14T04:24:13;2.95;;;2.38;;
13985;SDS011;7067;51.832;8.296;2023-06-14T04:26:39;5.72;;;1.90;;
13985;SDS011;7067;51.832;8.296;2023-06-14T04:29:06;5.85;;;2.00;;
13985;SDS011;7067;51.832;8.296;2023-06-14T04:31:31;3.53;;;1.55;;
13985;SDS011;7067;51.832;8.296;2023-06-14T04:34:02;5.82;;;2.45;;
13985;SDS011;7067;51.832;8.296;2023-06-14T04:36:31;3.20;;;1.77;;
13985;SDS011;7067;51.832;8.296;2023-06-14T04:38:57;1.90;;;1.70;;
13985;SDS011;7067;51.832;8.296;2023-06-14T04:41:23;2.30;;;2.10;;
13985;SDS011;7067;51.832;8.296;2023-06-14T04:43:56;3.72;;;1.73;;
13985;SDS011;7067;51.832;8.296;2023-06-14T04:46:26;1.83;;;1.60;;
13985;SDS011;7067;51.832;8.296;2023-06-14T04:48:53;2.60;;;2.00;;
13985;SDS011;7067;51.832;8.296;2023-06-14T04:51:19;5.40;;;1.70;;
13985;SDS011;7067;51.832;8.296;2023-06-14T04:53:47;4.50;;;1.60;;
13985;SDS011;7067;51.832;8.296;2023-06-14T04:56:14;2.88;;;2.42;;
13985;SDS011;7067;51.832;8.296;2023-06-14T04:58:39;2.78;;;1.92;;
13985;SDS011;7067;51.832;8.296;2023-06-14T05:01:05;5.18;;;1.67;;
13985;SDS011;7067;51.832;8.296;2023-06-14T05:03:30;3.25;;;2.05;;
13985;SDS011;7067;51.832;8.296;2023-06-14T05:05:56;4.72;;;1.92;;
13985;SDS011;7067;51.832;8.296;2023-06-14T05:08:21;1.60;;;1.50;;
13985;SDS011;7067;51.832;8.296;2023-06-14T05:10:50;4.55;;;1.60;;
13985;SDS011;7067;51.832;8.296;2023-06-14T05:13:16;3.97;;;1.90;;
13985;SDS011;7067;51.832;8.296;2023-06-14T05:15:42;3.15;;;1.75;;
13985;SDS011;7067;51.832;8.296;2023-06-14T05:18:07;4.18;;;1.55;;
13985;SDS011;7067;51.832;8.296;2023-06-14T05:20:34;4.03;;;1.88;;
13985;SDS011;7067;51.832;8.296;2023-06-14T05:23:02;3.05;;;1.80;;
13985;SDS011;7067;51.832;8.296;2023-06-14T05:25:27;3.45;;;1.52;;
13985;SDS011;7067;51.832;8.296;2023-06-14T05:27:53;1.65;;;1.52;;
13985;SDS011;7067;51.832;8.296;2023-06-14T05:30:18;2.08;;;1.38;;
13985;SDS011;7067;51.832;8.296;2023-06-14T05:32:43;3.08;;;1.83;;
13985;SDS011;7067;51.832;8.296;2023-06-14T05:35:09;3.38;;;2.03;;
13985;SDS011;7067;51.832;8.296;2023-06-14T05:37:35;1.45;;;1.35;;
13985;SDS011;7067;51.832;8.296;2023-06-14T05:40:01;2.28;;;1.38;;
13985;SDS011;7067;51.832;8.296;2023-06-14T05:42:29;2.22;;;1.80;;
13985;SDS011;7067;51.832;8.296;2023-06-14T05:44:55;2.28;;;1.55;;
13985;SDS011;7067;51.832;8.296;2023-06-14T05:47:20;2.83;;;1.65;;
13985;SDS011;7067;51.832;8.296;2023-06-14T05:49:46;1.23;;;1.08;;
13985;SDS011;7067;51.832;8.296;2023-06-14T05:52:11;1.58;;;1.45;;
13985;SDS011;7067;51.832;8.296;2023-06-14T05:54:38;2.83;;;1.38;;
13985;SDS011;7067;51.832;8.296;2023-06-14T05:57:03;2.50;;;1.15;;
13985;SDS011;7067;51.832;8.296;2023-06-14T05:59:30;3.53;;;1.70;;
13985;SDS011;7067;51.832;8.296;2023-06-14T06:01:55;1.73;;;1.23;;
13985;SDS011;7067;51.832;8.296;2023-06-14T06:04:20;2.25;;;1.10;;
13985;SDS011;7067;51.832;8.296;2023-06-14T06:06:46;2.17;;;1.17;;
13985;SDS011;7067;51.832;8.296;2023-06-14T06:09:12;1.48;;;1.20;;
13985;SDS011;7067;51.832;8.296;2023-06-14T06:11:39;1.27;;;1.17;;
13985;SDS011;7067;51.832;8.296;2023-06-14T06:14:05;3.08;;;1.70;;
13985;SDS011;7067;51.832;8.296;2023-06-14T06:16:30;1.42;;;1.33;;
13985;SDS011;7067;51.832;8.296;2023-06-14T06:18:56;1.58;;;1.35;;
13985;SDS011;7067;51.832;8.296;2023-06-14T06:21:21;1.13;;;1.02;;
13985;SDS011;7067;51.832;8.296;2023-06-14T06:23:46;2.28;;;1.30;;
13985;SDS011;7067;51.832;8.296;2023-06-14T06:26:12;2.97;;;1.20;;
13985;SDS011;7067;51.832;8.296;2023-06-14T06:28:37;1.55;;;1.13;;
13985;SDS011;7067;51.832;8.296;2023-06-14T06:31:02;1.40;;;1.05;;
13985;SDS011;7067;51.832;8.296;2023-06-14T06:33:28;2.20;;;1.10;;
13985;SDS011;7067;51.832;8.296;2023-06-14T06:35:53;2.00;;;1.02;;
13985;SDS011;7067;51.832;8.296;2023-06-14T06:38:18;1.10;;;1.02;;
13985;SDS011;7067;51.832;8.296;2023-06-14T06:40:44;1.95;;;0.88;;
13985;SDS011;7067;51.832;8.296;2023-06-14T06:43:09;3.08;;;0.95;;
13985;SDS011;7067;51.832;8.296;2023-06-14T06:45:38;0.80;;;0.80;;
13985;SDS011;7067;51.832;8.296;2023-06-14T06:48:04;2.50;;;0.90;;
13985;SDS011;7067;51.832;8.296;2023-06-14T06:50:29;1.15;;;0.75;;
13985;SDS011;7067;51.832;8.296;2023-06-14T06:52:55;6.05;;;0.90;;
13985;SDS011;7067;51.832;8.296;2023-06-14T06:55:20;2.30;;;0.82;;
13985;SDS011;7067;51.832;8.296;2023-06-14T06:57:46;5.28;;;0.80;;
13985;SDS011;7067;51.832;8.296;2023-06-14T07:00:11;0.63;;;0.63;;
13985;SDS011;7067;51.832;8.296;2023-06-14T07:02:37;0.57;;;0.50;;
13985;SDS011;7067;51.832;8.296;2023-06-14T07:05:03;0.85;;;0.65;;
13985;SDS011;7067;51.832;8.296;2023-06-14T07:07:28;2.38;;;0.60;;
13985;SDS011;7067;51.832;8.296;2023-06-14T07:09:53;0.70;;;0.55;;
13985;SDS011;7067;51.832;8.296;2023-06-14T07:12:19;0.52;;;0.50;;
13985;SDS011;7067;51.832;8.296;2023-06-14T07:14:44;2.13;;;0.50;;
13985;SDS011;7067;51.832;8.296;2023-06-14T07:17:09;2.38;;;0.68;;
13985;SDS011;7067;51.832;8.296;2023-06-14T07:19:35;0.65;;;0.50;;
13985;SDS011;7067;51.832;8.296;2023-06-14T07:22:00;0.82;;;0.50;;
13985;SDS011;7067;51.832;8.296;2023-06-14T07:24:26;2.03;;;0.70;;
13985;SDS011;7067;51.832;8.296;2023-06-14T07:26:53;0.63;;;0.60;;
13985;SDS011;7067;51.832;8.296;2023-06-14T07:29:18;0.68;;;0.68;;
13985;SDS011;7067;51.832;8.296;2023-06-14T07:31:45;0.93;;;0.82;;
13985;SDS011;7067;51.832;8.296;2023-06-14T07:34:10;1.00;;;0.80;;
13985;SDS011;7067;51.832;8.296;2023-06-14T07:36:36;2.00;;;0.65;;
13985;SDS011;7067;51.832;8.296;2023-06-14T07:39:02;0.95;;;0.95;;
13985;SDS011;7067;51.832;8.296;2023-06-14T07:41:28;1.65;;;0.40;;
13985;SDS011;7067;51.832;8.296;2023-06-14T07:43:53;0.70;;;0.57;;
13985;SDS011;7067;51.832;8.296;2023-06-14T07:46:19;1.13;;;0.70;;
13985;SDS011;7067;51.832;8.296;2023-06-14T07:48:44;2.25;;;0.47;;
13985;SDS011;7067;51.832;8.296;2023-06-14T07:51:09;1.40;;;0.77;;
13985;SDS011;7067;51.832;8.296;2023-06-14T07:53:35;0.85;;;0.80;;
13985;SDS011;7067;51.832;8.296;2023-06-14T07:56:00;1.58;;;0.88;;
13985;SDS011;7067;51.832;8.296;2023-06-14T07:58:27;1.20;;;0.60;;
13985;SDS011;7067;51.832;8.296;2023-06-14T08:00:52;1.80;;;1.02;;
13985;SDS011;7067;51.832;8.296;2023-06-14T08:03:18;0.80;;;0.77;;
13985;SDS011;7067;51.832;8.296;2023-06-14T08:05:44;4.80;;;0.80;;
13985;SDS011;7067;51.832;8.296;2023-06-14T08:08:10;0.68;;;0.63;;
13985;SDS011;7067;51.832;8.296;2023-06-14T08:10:35;0.95;;;0.60;;
13985;SDS011;7067;51.832;8.296;2023-06-14T08:13:00;1.20;;;0.60;;
13985;SDS011;7067;51.832;8.296;2023-06-14T08:15:26;2.03;;;0.63;;
13985;SDS011;7067;51.832;8.296;2023-06-14T08:17:51;2.53;;;0.52;;
13985;SDS011;7067;51.832;8.296;2023-06-14T08:20:16;0.70;;;0.70;;
13985;SDS011;7067;51.832;8.296;2023-06-14T08:22:42;0.60;;;0.60;;
13985;SDS011;7067;51.832;8.296;2023-06-14T08:25:07;1.10;;;0.80;;
13985;SDS011;7067;51.832;8.296;2023-06-14T08:27:33;0.95;;;0.63;;
13985;SDS011;7067;51.832;8.296;2023-06-14T08:29:59;0.57;;;0.50;;
13985;SDS011;7067;51.832;8.296;2023-06-14T08:32:24;1.10;;;0.93;;
13985;SDS011;7067;51.832;8.296;2023-06-14T08:34:49;1.58;;;0.80;;
13985;SDS011;7067;51.832;8.296;2023-06-14T08:37:15;0.57;;;0.50;;
13985;SDS011;7067;51.832;8.296;2023-06-14T08:39:41;0.80;;;0.60;;
13985;SDS011;7067;51.832;8.296;2023-06-14T08:42:07;0.45;;;0.45;;
13985;SDS011;7067;51.832;8.296;2023-06-14T08:44:32;1.50;;;0.60;;
13985;SDS011;7067;51.832;8.296;2023-06-14T08:46:59;0.57;;;0.50;;
13985;SDS011;7067;51.832;8.296;2023-06-14T08:49:25;0.93;;;0.90;;
13985;SDS011;7067;51.832;8.296;2023-06-14T08:51:52;2.92;;;0.70;;
13985;SDS011;7067;51.832;8.296;2023-06-14T08:54:22;0.88;;;0.88;;
13985;SDS011;7067;51.832;8.296;2023-06-14T08:56:49;0.93;;;0.73;;
13985;SDS011;7067;51.832;8.296;2023-06-14T08:59:16;1.23;;;0.88;;
13985;SDS011;7067;51.832;8.296;2023-06-14T09:01:43;2.97;;;0.70;;
13985;SDS011;7067;51.832;8.296;2023-06-14T09:04:10;1.95;;;0.90;;
13985;SDS011;7067;51.832;8.296;2023-06-14T09:06:35;3.13;;;0.90;;
13985;SDS011;7067;51.832;8.296;2023-06-14T09:09:01;0.80;;;0.80;;
13985;SDS011;7067;51.832;8.296;2023-06-14T09:11:29;2.75;;;0.70;;
13985;SDS011;7067;51.832;8.296;2023-06-14T09:13:55;1.45;;;0.80;;
13985;SDS011;7067;51.832;8.296;2023-06-14T09:16:20;3.42;;;0.77;;
13985;SDS011;7067;51.832;8.296;2023-06-14T09:18:46;3.08;;;0.77;;
13985;SDS011;7067;51.832;8.296;2023-06-14T09:21:15;2.05;;;0.82;;
13985;SDS011;7067;51.832;8.296;2023-06-14T09:23:45;0.85;;;0.75;;
13985;SDS011;7067;51.832;8.296;2023-06-14T09:28:41;1.00;;;0.88;;
13985;SDS011;7067;51.832;8.296;2023-06-14T09:31:11;4.63;;;0.95;;
13985;SDS011;7067;51.832;8.296;2023-06-14T09:33:36;2.78;;;0.75;;
13985;SDS011;7067;51.832;8.296;2023-06-14T09:36:02;1.00;;;0.70;;
13985;SDS011;7067;51.832;8.296;2023-06-14T09:38:29;1.20;;;0.63;;
13985;SDS011;7067;51.832;8.296;2023-06-14T09:40:58;1.73;;;0.82;;
13985;SDS011;7067;51.832;8.296;2023-06-14T09:43:23;0.98;;;0.63;;
13985;SDS011;7067;51.832;8.296;2023-06-14T09:45:51;1.85;;;1.02;;
13985;SDS011;7067;51.832;8.296;2023-06-14T09:48:16;1.08;;;0.90;;
13985;SDS011;7067;51.832;8.296;2023-06-14T09:50:44;2.20;;;1.02;;
13985;SDS011;7067;51.832;8.296;2023-06-14T09:53:11;1.55;;;1.02;;
13985;SDS011;7067;51.832;8.296;2023-06-14T09:55:37;1.90;;;1.08;;
13985;SDS011;7067;51.832;8.296;2023-06-14T09:58:05;2.58;;;0.90;;
13985;SDS011;7067;51.832;8.296;2023-06-14T10:00:32;1.23;;;1.10;;
13985;SDS011;7067;51.832;8.296;2023-06-14T10:03:00;0.90;;;0.90;;
13985;SDS011;7067;51.832;8.296;2023-06-14T10:05:28;1.02;;;0.85;;
13985;SDS011;7067;51.832;8.296;2023-06-14T10:08:01;0.80;;;0.80;;
13985;SDS011;7067;51.832;8.296;2023-06-14T10:10:33;1.25;;;1.15;;
13985;SDS011;7067;51.832;8.296;2023-06-14T10:12:58;1.40;;;1.00;;
13985;SDS011;7067;51.832;8.296;2023-06-14T10:15:28;2.03;;;1.00;;
13985;SDS011;7067;51.832;8.296;2023-06-14T10:17:59;1.00;;;0.90;;
13985;SDS011;7067;51.832;8.296;2023-06-14T10:20:43;1.77;;;1.10;;
13985;SDS011;7067;51.832;8.296;2023-06-14T10:23:16;1.40;;;1.30;;
13985;SDS011;7067;51.832;8.296;2023-06-14T10:25:44;2.50;;;1.75;;
13985;SDS011;7067;51.832;8.296;2023-06-14T10:28:19;1.13;;;0.98;;
13985;SDS011;7067;51.832;8.296;2023-06-14T10:33:32;1.10;;;1.10;;
13985;SDS011;7067;51.832;8.296;2023-06-14T10:36:23;1.08;;;0.98;;
13985;SDS011;7067;51.832;8.296;2023-06-14T10:39:05;2.10;;;1.10;;
13985;SDS011;7067;51.832;8.296;2023-06-14T10:41:37;2.92;;;1.25;;
13985;SDS011;7067;51.832;8.296;2023-06-14T10:46:40;3.33;;;1.15;;
13985;SDS011;7067;51.832;8.296;2023-06-14T10:49:11;1.20;;;1.10;;
13985;SDS011;7067;51.832;8.296;2023-06-14T10:51:41;1.95;;;1.27;;
13985;SDS011;7067;51.832;8.296;2023-06-14T10:54:14;5.03;;;1.40;;
13985;SDS011;7067;51.832;8.296;2023-06-14T10:56:47;2.80;;;1.20;;
13985;SDS011;7067;51.832;8.296;2023-06-14T10:59:14;2.45;;;1.40;;
13985;SDS011;7067;51.832;8.296;2023-06-14T11:04:20;1.95;;;1.20;;
13985;SDS011;7067;51.832;8.296;2023-06-14T11:06:47;1.65;;;1.27;;
13985;SDS011;7067;51.832;8.296;2023-06-14T11:12:18;3.08;;;1.17;;
13985;SDS011;7067;51.832;8.296;2023-06-14T11:14:47;1.35;;;1.10;;
13985;SDS011;7067;51.832;8.296;2023-06-14T11:17:13;1.67;;;1.15;;
13985;SDS011;7067;51.832;8.296;2023-06-14T11:19:38;1.10;;;1.00;;
13985;SDS011;7067;51.832;8.296;2023-06-14T11:22:03;3.60;;;1.30;;
13985;SDS011;7067;51.832;8.296;2023-06-14T11:24:29;1.52;;;1.30;;
13985;SDS011;7067;51.832;8.296;2023-06-14T11:26:55;0.88;;;0.88;;
13985;SDS011;7067;51.832;8.296;2023-06-14T11:29:21;2.88;;;1.15;;
13985;SDS011;7067;51.832;8.296;2023-06-14T11:31:47;2.67;;;1.30;;
13985;SDS011;7067;51.832;8.296;2023-06-14T11:34:12;1.17;;;1.08;;
13985;SDS011;7067;51.832;8.296;2023-06-14T11:36:38;1.55;;;1.10;;
13985;SDS011;7067;51.832;8.296;2023-06-14T11:39:04;1.15;;;1.05;;
13985;SDS011;7067;51.832;8.296;2023-06-14T11:41:37;1.33;;;1.23;;
13985;SDS011;7067;51.832;8.296;2023-06-14T11:44:06;3.25;;;1.25;;
13985;SDS011;7067;51.832;8.296;2023-06-14T11:46:32;1.40;;;1.20;;
13985;SDS011;7067;51.832;8.296;2023-06-14T11:48:58;1.30;;;1.20;;
13985;SDS011;7067;51.832;8.296;2023-06-14T11:51:23;1.23;;;1.15;;
13985;SDS011;7067;51.832;8.296;2023-06-14T11:53:49;2.35;;;1.10;;
13985;SDS011;7067;51.832;8.296;2023-06-14T11:56:14;2.55;;;1.38;;
13985;SDS011;7067;51.832;8.296;2023-06-14T11:58:40;1.00;;;1.00;;
13985;SDS011;7067;51.832;8.296;2023-06-14T12:01:08;1.60;;;1.25;;
13985;SDS011;7067;51.832;8.296;2023-06-14T12:03:33;1.58;;;1.20;;
13985;SDS011;7067;51.832;8.296;2023-06-14T12:06:06;1.20;;;1.13;;
13985;SDS011;7067;51.832;8.296;2023-06-14T12:08:38;5.28;;;1.50;;
13985;SDS011;7067;51.832;8.296;2023-06-14T12:11:05;1.45;;;1.27;;
13985;SDS011;7067;51.832;8.296;2023-06-14T12:13:31;1.42;;;1.33;;
13985;SDS011;7067;51.832;8.296;2023-06-14T12:15:56;1.10;;;1.10;;
13985;SDS011;7067;51.832;8.296;2023-06-14T12:18:31;2.45;;;1.90;;
13985;SDS011;7067;51.832;8.296;2023-06-14T12:20:58;1.95;;;1.83;;
13985;SDS011;7067;51.832;8.296;2023-06-14T12:23:27;2.35;;;1.60;;
13985;SDS011;7067;51.832;8.296;2023-06-14T12:26:12;1.63;;;1.52;;
13985;SDS011;7067;51.832;8.296;2023-06-14T12:28:39;2.08;;;1.17;;
13985;SDS011;7067;51.832;8.296;2023-06-14T12:31:05;1.30;;;1.20;;
13985;SDS011;7067;51.832;8.296;2023-06-14T12:33:31;1.30;;;1.20;;
13985;SDS011;7067;51.832;8.296;2023-06-14T12:35:56;1.45;;;1.20;;
13985;SDS011;7067;51.832;8.296;2023-06-14T12:38:24;3.58;;;1.27;;
13985;SDS011;7067;51.832;8.296;2023-06-14T12:40:49;2.75;;;1.42;;
13985;SDS011;7067;51.832;8.296;2023-06-14T12:43:14;1.88;;;1.35;;
13985;SDS011;7067;51.832;8.296;2023-06-14T12:45:40;1.40;;;1.13;;
13985;SDS011;7067;51.832;8.296;2023-06-14T12:48:05;1.25;;;1.17;;
13985;SDS011;7067;51.832;8.296;2023-06-14T12:50:30;1.30;;;1.20;;
13985;SDS011;7067;51.832;8.296;2023-06-14T12:52:56;1.73;;;1.30;;
13985;SDS011;7067;51.832;8.296;2023-06-14T12:55:21;1.92;;;1.30;;
13985;SDS011;7067;51.832;8.296;2023-06-14T12:57:46;4.32;;;1.20;;
13985;SDS011;7067;51.832;8.296;2023-06-14T13:00:14;1.15;;;0.98;;
13985;SDS011;7067;51.832;8.296;2023-06-14T13:02:40;1.42;;;1.10;;
13985;SDS011;7067;51.832;8.296;2023-06-14T13:05:05;3.13;;;1.65;;
13985;SDS011;7067;51.832;8.296;2023-06-14T13:07:31;4.22;;;1.33;;
13985;SDS011;7067;51.832;8.296;2023-06-14T13:09:56;1.35;;;1.25;;
13985;SDS011;7067;51.832;8.296;2023-06-14T13:12:21;1.48;;;1.13;;
13985;SDS011;7067;51.832;8.296;2023-06-14T13:14:47;2.95;;;1.10;;
13985;SDS011;7067;51.832;8.296;2023-06-14T13:17:12;1.45;;;1.10;;
13985;SDS011;7067;51.832;8.296;2023-06-14T13:19:37;1.42;;;1.00;;
13985;SDS011;7067;51.832;8.296;2023-06-14T13:22:03;4.32;;;1.23;;
13985;SDS011;7067;51.832;8.296;2023-06-14T13:24:29;1.40;;;1.20;;
13985;SDS011;7067;51.832;8.296;2023-06-14T13:26:54;1.20;;;1.13;;
13985;SDS011;7067;51.832;8.296;2023-06-14T13:29:20;1.08;;;1.00;;
13985;SDS011;7067;51.832;8.296;2023-06-14T13:31:46;1.58;;;1.38;;
13985;SDS011;7067;51.832;8.296;2023-06-14T13:34:11;1.42;;;1.30;;
13985;SDS011;7067;51.832;8.296;2023-06-14T13:36:36;1.02;;;0.98;;
13985;SDS011;7067;51.832;8.296;2023-06-14T13:39:02;1.95;;;1.52;;
13985;SDS011;7067;51.832;8.296;2023-06-14T13:41:28;4.00;;;1.65;;
13985;SDS011;7067;51.832;8.296;2023-06-14T13:43:58;3.40;;;1.58;;
13985;SDS011;7067;51.832;8.296;2023-06-14T13:46:24;2.45;;;1.13;;
13985;SDS011;7067;51.832;8.296;2023-06-14T13:48:50;1.25;;;0.98;;
13985;SDS011;7067;51.832;8.296;2023-06-14T13:51:15;3.25;;;1.65;;
13985;SDS011;7067;51.832;8.296;2023-06-14T13:53:45;5.55;;;1.00;;
13985;SDS011;7067;51.832;8.296;2023-06-14T13:56:12;1.38;;;1.27;;
13985;SDS011;7067;51.832;8.296;2023-06-14T13:58:37;1.08;;;1.08;;
13985;SDS011;7067;51.832;8.296;2023-06-14T14:01:03;3.65;;;1.55;;
13985;SDS011;7067;51.832;8.296;2023-06-14T14:03:28;0.80;;;0.80;;
13985;SDS011;7067;51.832;8.296;2023-06-14T14:05:53;2.40;;;1.35;;
13985;SDS011;7067;51.832;8.296;2023-06-14T14:08:19;1.63;;;1.08;;
13985;SDS011;7067;51.832;8.296;2023-06-14T14:10:44;1.75;;;0.90;;
13985;SDS011;7067;51.832;8.296;2023-06-14T14:13:10;3.70;;;1.20;;
13985;SDS011;7067;51.832;8.296;2023-06-14T14:15:35;1.35;;;1.25;;
13985;SDS011;7067;51.832;8.296;2023-06-14T14:18:01;1.20;;;1.10;;
13985;SDS011;7067;51.832;8.296;2023-06-14T14:20:29;2.97;;;1.00;;
13985;SDS011;7067;51.832;8.296;2023-06-14T14:22:55;1.40;;;1.30;;
13985;SDS011;7067;51.832;8.296;2023-06-14T14:25:21;1.65;;;1.10;;
13985;SDS011;7067;51.832;8.296;2023-06-14T14:27:46;1.23;;;1.13;;
13985;SDS011;7067;51.832;8.296;2023-06-14T14:30:12;1.48;;;1.25;;
13985;SDS011;7067;51.832;8.296;2023-06-14T14:32:39;1.15;;;1.15;;
13985;SDS011;7067;51.832;8.296;2023-06-14T14:35:05;0.85;;;0.80;;
13985;SDS011;7067;51.832;8.296;2023-06-14T14:37:31;1.17;;;0.95;;
13985;SDS011;7067;51.832;8.296;2023-06-14T14:39:56;1.95;;;1.33;;
13985;SDS011;7067;51.832;8.296;2023-06-14T14:42:21;1.42;;;1.33;;
13985;SDS011;7067;51.832;8.296;2023-06-14T14:45:07;2.28;;;1.02;;
13985;SDS011;7067;51.832;8.296;2023-06-14T14:47:33;1.20;;;1.08;;
13985;SDS011;7067;51.832;8.296;2023-06-14T14:49:58;1.35;;;1.00;;
13985;SDS011;7067;51.832;8.296;2023-06-14T14:52:23;1.65;;;0.95;;
13985;SDS011;7067;51.832;8.296;2023-06-14T14:54:49;2.70;;;0.80;;
13985;SDS011;7067;51.832;8.296;2023-06-14T14:57:15;1.48;;;1.13;;
13985;SDS011;7067;51.832;8.296;2023-06-14T14:59:40;1.90;;;0.90;;
13985;SDS011;7067;51.832;8.296;2023-06-14T15:02:05;1.55;;;0.93;;
13985;SDS011;7067;51.832;8.296;2023-06-14T15:04:31;0.93;;;0.80;;
13985;SDS011;7067;51.832;8.296;2023-06-14T15:06:57;0.82;;;0.82;;
13985;SDS011;7067;51.832;8.296;2023-06-14T15:09:22;1.95;;;0.63;;
13985;SDS011;7067;51.832;8.296;2023-06-14T15:11:47;1.38;;;0.90;;
13985;SDS011;7067;51.832;8.296;2023-06-14T15:14:13;0.70;;;0.70;;
13985;SDS011;7067;51.832;8.296;2023-06-14T15:16:39;0.82;;;0.82;;